Pascoag, Rhode Island
Current Conditions -  °F | °C
As of 11:55 AM on Friday 24 Oct 2014 (Local Time) from KSFZ Reporting Station
Overcast Overcast  
Wind Chill: 52°   Ceiling: 1400
Heat Index: 52°   Visibility: 10mi
Dew Point: 39°   Wind: 10mph
Humidity: 62%   Direction: 310°NW
Pressure: 29.71"   Gusts: NA
Location:  41.95°N, 71.7°W
Report Text: KSFZ 241555Z 31009KT 10SM OVC014 11/04 A2971 RMK AO1
Loading
Personal Weather Stations






























Interactive Weather Map
Tropical Storm Tracking
New forecast layout! Learn more

10-Day Weather Forecast

Advertisements
Track Severe Weather on mobile